createdAt,value
2022-11-06T00:01:32.189Z,9.23
2022-11-06T00:04:35.169Z,9.67
2022-11-06T00:07:36.568Z,9.77
2022-11-06T00:10:38.196Z,9.97
2022-11-06T00:13:39.993Z,10.33
2022-11-06T00:16:42.828Z,10.93
2022-11-06T00:19:44.209Z,9.47
2022-11-06T00:22:45.672Z,9.10
2022-11-06T00:25:47.057Z,9.93
2022-11-06T00:28:49.844Z,9.37
2022-11-06T00:31:51.340Z,9.23
2022-11-06T00:34:52.727Z,9.53
2022-11-06T00:37:54.428Z,9.90
2022-11-06T00:40:55.822Z,9.80
2022-11-06T00:44:01.416Z,9.97
2022-11-06T00:47:02.876Z,8.97
2022-11-06T00:50:04.643Z,9.27
2022-11-06T00:53:06.030Z,9.60
2022-11-06T00:56:10.508Z,9.23
2022-11-06T00:59:13.963Z,9.70
2022-11-06T01:02:17.224Z,8.83
2022-11-06T01:05:18.960Z,8.67
2022-11-06T01:08:20.354Z,9.03
2022-11-06T01:11:28.559Z,9.03
2022-11-06T01:14:33.125Z,9.10
2022-11-06T01:17:35.064Z,9.40
2022-11-06T01:20:37.475Z,9.40
2022-11-06T01:23:38.972Z,8.97
2022-11-06T01:26:58.553Z,9.47
2022-11-06T01:30:02.372Z,9.00
2022-11-06T01:33:03.791Z,9.33
2022-11-06T01:36:07.949Z,8.63
2022-11-06T01:39:12.249Z,8.67
2022-11-06T01:42:14.751Z,8.23
2022-11-06T01:45:33.292Z,8.73
2022-11-06T01:48:35.032Z,8.97
2022-11-06T01:51:42.235Z,8.73
2022-11-06T01:54:46.633Z,8.77
2022-11-06T01:57:48.621Z,9.00
2022-11-06T02:00:50.646Z,8.33
2022-11-06T02:04:04.600Z,8.37
2022-11-06T02:07:06.829Z,8.53
2022-11-06T02:10:08.672Z,8.57
2022-11-06T02:13:34.380Z,9.10
2022-11-06T02:16:48.970Z,8.63
2022-11-06T02:20:26.290Z,9.00
2022-11-06T02:24:05.227Z,8.63
2022-11-06T02:27:16.126Z,9.07
2022-11-06T02:30:18.691Z,7.80
2022-11-06T02:33:30.211Z,7.90
2022-11-06T02:36:39.412Z,8.50
2022-11-06T02:39:44.009Z,8.13
2022-11-06T02:42:50.927Z,8.50
2022-11-06T02:45:58.930Z,8.00
2022-11-06T02:49:06.621Z,7.70
2022-11-06T02:52:17.156Z,8.23
2022-11-06T02:55:26.450Z,8.40
2022-11-06T02:58:53.160Z,8.00
2022-11-06T03:02:00.546Z,7.20
2022-11-06T03:05:14.866Z,7.30
2022-11-06T03:08:31.760Z,7.00
2022-11-06T03:11:41.230Z,7.33
2022-11-06T03:15:24.636Z,6.80
2022-11-06T03:19:00.062Z,6.77
2022-11-06T03:22:12.945Z,7.30
2022-11-06T03:25:20.516Z,6.80
2022-11-06T03:28:27.295Z,7.07
2022-11-06T03:31:44.922Z,6.50
2022-11-06T03:35:21.265Z,6.57
2022-11-06T03:38:37.192Z,7.20
2022-11-06T03:41:54.776Z,6.23
2022-11-06T03:45:11.784Z,6.60
2022-11-06T03:48:33.430Z,6.57
2022-11-06T03:51:48.051Z,6.53
2022-11-06T03:54:52.657Z,6.47
2022-11-06T03:57:56.620Z,6.47
2022-11-06T04:01:00.916Z,6.97
2022-11-06T04:04:28.877Z,6.90
2022-11-06T04:07:36.873Z,7.57
2022-11-06T04:11:03.663Z,7.73
2022-11-06T04:14:07.463Z,6.57
2022-11-06T04:17:11.367Z,7.20
2022-11-06T04:20:38.973Z,7.27
2022-11-06T04:24:40.872Z,7.60
2022-11-06T04:27:54.830Z,7.53
2022-11-06T04:31:24.099Z,7.40
2022-11-06T04:34:37.886Z,7.60
2022-11-06T04:38:02.462Z,7.63
2022-11-06T04:41:42.364Z,7.53
2022-11-06T04:44:54.312Z,7.63
2022-11-06T04:47:56.063Z,7.33
2022-11-06T04:51:02.801Z,7.53
2022-11-06T04:54:08.396Z,7.57
2022-11-06T04:57:10.714Z,7.93
2022-11-06T05:00:16.484Z,7.97
2022-11-06T05:03:18.880Z,7.67
2022-11-06T05:06:21.767Z,7.90
2022-11-06T05:09:25.313Z,8.10
2022-11-06T05:12:26.702Z,8.33
2022-11-06T05:15:28.641Z,8.80
2022-11-06T05:18:30.186Z,8.67
2022-11-06T05:21:50.392Z,8.40
2022-11-06T05:24:51.832Z,9.47
2022-11-06T05:27:53.253Z,9.17
2022-11-06T05:30:54.630Z,9.17
2022-11-06T05:33:56.039Z,9.90
2022-11-06T05:36:57.565Z,9.63
2022-11-06T05:39:59.012Z,9.83
2022-11-06T05:43:00.401Z,9.50
2022-11-06T05:46:01.915Z,9.73
2022-11-06T05:49:03.316Z,9.07
2022-11-06T05:52:04.820Z,8.87
2022-11-06T05:55:11.600Z,9.33
2022-11-06T05:58:16.031Z,9.43
2022-11-06T06:01:17.741Z,9.47
2022-11-06T06:04:19.160Z,9.40
2022-11-06T06:07:20.574Z,9.27
2022-11-06T06:10:22.027Z,9.50
2022-11-06T06:13:23.427Z,9.93
2022-11-06T06:16:24.838Z,10.60
2022-11-06T06:19:26.230Z,10.83
2022-11-06T06:22:27.684Z,10.20
2022-11-06T06:25:29.609Z,10.20
2022-11-06T06:28:31.810Z,10.17
2022-11-06T06:31:33.230Z,10.13
2022-11-06T06:34:34.630Z,10.07
2022-11-06T06:37:36.395Z,10.00
2022-11-06T06:40:37.828Z,10.17
2022-11-06T06:43:39.286Z,10.67
2022-11-06T06:46:40.694Z,9.57
2022-11-06T06:49:43.738Z,9.37
2022-11-06T06:52:45.144Z,8.97
2022-11-06T06:55:46.629Z,8.77
2022-11-06T06:58:48.069Z,8.67
2022-11-06T07:01:49.583Z,7.97
2022-11-06T07:04:51.086Z,8.97
2022-11-06T07:07:52.479Z,8.73
2022-11-06T07:11:05.595Z,8.60
2022-11-06T07:14:07.210Z,8.63
2022-11-06T07:17:08.607Z,9.47
2022-11-06T07:20:10.411Z,8.77
2022-11-06T07:23:11.821Z,8.53
2022-11-06T07:26:13.238Z,9.40
2022-11-06T07:29:14.617Z,9.40
2022-11-06T07:32:16.027Z,8.37
2022-11-06T07:35:17.400Z,8.90
2022-11-06T07:38:18.924Z,8.20
2022-11-06T07:41:20.320Z,7.90
2022-11-06T07:44:21.709Z,9.00
2022-11-06T07:47:23.103Z,8.70
2022-11-06T07:50:24.936Z,8.80
2022-11-06T07:53:26.328Z,8.43
2022-11-06T07:56:27.713Z,8.57
2022-11-06T07:59:29.100Z,8.27
2022-11-06T08:02:30.616Z,8.37
2022-11-06T08:05:32.066Z,8.00
2022-11-06T08:08:33.472Z,7.70
2022-11-06T08:11:35.063Z,8.00
2022-11-06T08:14:41.229Z,7.70
2022-11-06T08:17:43.121Z,7.50
2022-11-06T08:20:44.523Z,8.90
2022-11-06T08:23:45.960Z,7.37
2022-11-06T08:26:47.489Z,7.43
2022-11-06T08:29:48.878Z,8.27
2022-11-06T08:32:50.612Z,7.80
2022-11-06T08:35:52.051Z,7.30
2022-11-06T08:38:53.436Z,6.67
2022-11-06T08:41:54.886Z,7.30
2022-11-06T08:44:56.296Z,7.07
2022-11-06T08:48:02.605Z,7.43
2022-11-06T08:51:05.714Z,7.00
2022-11-06T08:54:07.179Z,6.83
2022-11-06T08:57:08.628Z,7.47
2022-11-06T09:00:11.904Z,6.73
2022-11-06T09:03:15.680Z,6.80
2022-11-06T09:06:17.956Z,6.17
2022-11-06T09:09:19.539Z,6.40
2022-11-06T09:12:20.953Z,6.40
2022-11-06T09:15:22.689Z,6.77
2022-11-06T09:18:24.096Z,6.00
2022-11-06T09:21:25.669Z,6.00
2022-11-06T09:24:43.568Z,6.60
2022-11-06T09:27:58.552Z,6.00
2022-11-06T09:31:01.638Z,6.23
2022-11-06T09:34:03.142Z,5.90
2022-11-06T09:37:04.575Z,5.67
2022-11-06T09:40:06.871Z,5.60
2022-11-06T09:43:15.616Z,5.77
2022-11-06T09:46:22.303Z,5.80
2022-11-06T09:49:32.235Z,6.07
2022-11-06T09:52:46.492Z,5.40
2022-11-06T09:55:49.211Z,5.40
2022-11-06T09:58:52.569Z,5.73
2022-11-06T10:02:01.475Z,5.73
2022-11-06T10:05:26.281Z,6.00
2022-11-06T10:08:30.378Z,5.80
2022-11-06T10:12:14.069Z,6.00
2022-11-06T10:15:26.007Z,5.63
2022-11-06T10:18:48.831Z,5.23
2022-11-06T10:22:09.267Z,5.77
2022-11-06T10:25:22.625Z,6.17
2022-11-06T10:28:41.267Z,6.20
2022-11-06T10:31:48.468Z,6.50
2022-11-06T10:34:54.792Z,6.03
2022-11-06T10:38:03.769Z,6.00
2022-11-06T10:41:05.236Z,6.10
2022-11-06T10:44:15.674Z,5.80
2022-11-06T10:47:20.114Z,5.90
2022-11-06T10:50:26.503Z,5.30
2022-11-06T10:53:56.943Z,6.17
2022-11-06T10:57:08.118Z,5.37
2022-11-06T11:00:13.222Z,6.10
2022-11-06T11:03:29.920Z,5.17
2022-11-06T11:06:31.547Z,5.40
2022-11-06T11:09:34.452Z,5.00
2022-11-06T11:12:35.868Z,5.80
2022-11-06T11:15:45.906Z,5.53
2022-11-06T11:18:48.906Z,5.40
2022-11-06T11:21:58.776Z,5.00
2022-11-06T11:25:06.914Z,4.90
2022-11-06T11:28:22.379Z,4.80
2022-11-06T11:31:35.000Z,4.63
2022-11-06T11:34:50.294Z,4.77
2022-11-06T11:38:06.906Z,4.73
2022-11-06T11:41:23.636Z,4.50
2022-11-06T11:44:25.199Z,4.10
2022-11-06T11:47:26.578Z,4.10
2022-11-06T11:50:32.250Z,4.40
2022-11-06T11:53:33.683Z,4.07
2022-11-06T11:57:03.661Z,3.63
2022-11-06T12:00:16.788Z,3.63
2022-11-06T12:03:19.512Z,4.03
2022-11-06T12:06:21.078Z,4.97
2022-11-06T12:09:23.729Z,4.50
2022-11-06T12:12:36.385Z,5.30
2022-11-06T12:16:06.772Z,4.83
2022-11-06T12:19:09.457Z,5.33
2022-11-06T12:22:18.597Z,4.63
2022-11-06T12:25:25.407Z,5.37
2022-11-06T12:28:31.009Z,4.90
2022-11-06T12:31:41.585Z,5.30
2022-11-06T12:35:01.449Z,5.27
2022-11-06T12:38:11.631Z,5.13
2022-11-06T12:41:27.941Z,4.60
2022-11-06T12:44:29.415Z,4.97
2022-11-06T12:47:38.040Z,5.53
2022-11-06T12:51:23.040Z,4.67
2022-11-06T12:55:03.191Z,4.50
2022-11-06T12:58:26.400Z,4.93
2022-11-06T13:01:37.401Z,4.67
2022-11-06T13:04:58.820Z,5.03
2022-11-06T13:08:15.520Z,4.07
2022-11-06T13:11:42.350Z,4.10
2022-11-06T13:15:11.807Z,4.17
2022-11-06T13:18:25.507Z,4.03
2022-11-06T13:21:54.324Z,3.60
2022-11-06T13:25:15.736Z,3.67
2022-11-06T13:28:39.128Z,3.90
2022-11-06T13:31:43.551Z,3.90
2022-11-06T13:34:49.176Z,3.97
2022-11-06T13:37:52.384Z,3.10
2022-11-06T13:41:03.293Z,3.30
2022-11-06T13:44:15.934Z,3.83
2022-11-06T13:47:40.191Z,4.00
2022-11-06T13:50:53.411Z,4.20
2022-11-06T13:54:03.009Z,3.40
2022-11-06T13:57:34.997Z,3.43
2022-11-06T14:01:11.876Z,4.13
2022-11-06T14:04:31.844Z,3.40
2022-11-06T14:07:35.452Z,3.17
2022-11-06T14:10:46.123Z,3.47
2022-11-06T14:14:04.236Z,3.40
2022-11-06T14:17:13.521Z,3.60
2022-11-06T14:20:35.252Z,3.40
2022-11-06T14:23:42.775Z,3.93
2022-11-06T14:26:46.762Z,4.13
2022-11-06T14:30:15.315Z,4.47
2022-11-06T14:33:45.138Z,4.53
2022-11-06T14:36:47.969Z,4.33
2022-11-06T14:39:55.890Z,3.97
2022-11-06T14:42:57.833Z,4.17
2022-11-06T14:46:22.642Z,4.20
2022-11-06T14:49:35.613Z,4.13
2022-11-06T14:52:47.850Z,4.33
2022-11-06T14:56:01.799Z,4.70
2022-11-06T14:59:16.644Z,4.47
2022-11-06T15:02:26.062Z,4.40
2022-11-06T15:05:27.915Z,4.57
2022-11-06T15:08:50.651Z,4.27
2022-11-06T15:12:01.304Z,4.60
2022-11-06T15:15:14.546Z,5.10
2022-11-06T15:18:25.501Z,8.93
2022-11-06T15:21:32.427Z,7.00
2022-11-06T15:24:42.988Z,6.20
2022-11-06T15:27:53.162Z,5.80
2022-11-06T15:31:02.823Z,4.73
2022-11-06T15:34:12.258Z,5.40
2022-11-06T15:37:22.202Z,5.17
2022-11-06T15:40:29.007Z,5.10
2022-11-06T15:43:35.743Z,4.83
2022-11-06T15:46:37.257Z,4.63
2022-11-06T15:49:38.860Z,4.77
2022-11-06T15:52:40.669Z,6.93
2022-11-06T15:56:05.935Z,5.30
2022-11-06T15:59:14.506Z,5.00
2022-11-06T16:02:22.687Z,4.07
2022-11-06T16:05:27.099Z,4.03
2022-11-06T16:08:31.284Z,4.00
2022-11-06T16:11:34.140Z,3.70
2022-11-06T16:14:39.411Z,3.77
2022-11-06T16:17:45.285Z,3.50
2022-11-06T16:20:51.618Z,4.57
2022-11-06T16:23:57.297Z,4.40
2022-11-06T16:26:59.553Z,3.93
2022-11-06T16:30:06.376Z,4.60
2022-11-06T16:33:22.703Z,4.30
2022-11-06T16:36:26.019Z,3.57
2022-11-06T16:39:47.731Z,3.33
2022-11-06T16:43:02.500Z,4.27
2022-11-06T16:46:08.453Z,3.80
2022-11-06T16:49:34.030Z,3.30
2022-11-06T16:52:39.220Z,12.57
2022-11-06T16:55:41.379Z,7.80
2022-11-06T16:58:51.343Z,6.30
2022-11-06T17:01:52.937Z,3.33
2022-11-06T17:05:28.656Z,3.10
2022-11-06T17:08:36.105Z,3.13
2022-11-06T17:11:38.602Z,4.23
2022-11-06T17:14:44.120Z,4.03
2022-11-06T17:17:45.528Z,5.70
2022-11-06T17:20:51.255Z,4.33
2022-11-06T17:23:53.057Z,4.93
2022-11-06T17:26:54.500Z,4.47
2022-11-06T17:29:56.872Z,4.37
2022-11-06T17:32:58.275Z,5.00
2022-11-06T17:36:00.175Z,4.90
2022-11-06T17:39:01.923Z,5.00
2022-11-06T17:42:03.424Z,6.93
2022-11-06T17:45:05.219Z,9.63
2022-11-06T17:48:06.633Z,10.77
2022-11-06T17:51:46.216Z,9.70
2022-11-06T17:54:47.663Z,9.63
2022-11-06T17:57:49.131Z,7.10
2022-11-06T18:00:50.529Z,8.30
2022-11-06T18:03:52.112Z,8.13
2022-11-06T18:06:53.901Z,8.90
2022-11-06T18:09:55.342Z,7.30
2022-11-06T18:12:56.729Z,7.63
2022-11-06T18:15:58.226Z,7.60
2022-11-06T18:19:00.090Z,7.53
2022-11-06T18:22:06.496Z,7.53
2022-11-06T18:25:08.245Z,7.40
2022-11-06T18:28:09.792Z,6.97
2022-11-06T18:31:11.211Z,6.70
2022-11-06T18:34:20.170Z,7.00
2022-11-06T18:37:25.559Z,5.77
2022-11-06T18:40:27.374Z,6.53
2022-11-06T18:43:29.065Z,6.63
2022-11-06T18:46:30.506Z,7.80
2022-11-06T18:49:31.947Z,7.60
2022-11-06T18:52:56.223Z,8.53
2022-11-06T18:55:54.743Z,7.20
2022-11-06T18:58:56.468Z,6.73
2022-11-06T19:01:58.000Z,6.70
2022-11-06T19:04:59.745Z,6.37
2022-11-06T19:08:02.574Z,5.70
2022-11-06T19:11:05.780Z,5.77
2022-11-06T19:14:07.283Z,5.20
2022-11-06T19:17:08.695Z,4.70
2022-11-06T19:20:14.742Z,5.63
2022-11-06T19:23:16.917Z,5.20
2022-11-06T19:26:30.444Z,5.90
2022-11-06T19:29:33.042Z,5.77
2022-11-06T19:32:34.636Z,5.53
2022-11-06T19:35:36.279Z,6.13
2022-11-06T19:38:37.795Z,6.53
2022-11-06T19:41:39.232Z,6.43
2022-11-06T19:44:40.636Z,6.23
2022-11-06T19:47:42.090Z,6.07
2022-11-06T19:50:59.235Z,6.00
2022-11-06T19:54:01.598Z,6.33
2022-11-06T19:57:27.258Z,5.87
2022-11-06T20:00:24.633Z,5.97
2022-11-06T20:03:26.141Z,6.17
2022-11-06T20:06:27.699Z,6.03
2022-11-06T20:09:29.124Z,5.97
2022-11-06T20:12:31.003Z,5.90
2022-11-06T20:15:32.873Z,5.97
2022-11-06T20:18:37.294Z,5.77
2022-11-06T20:21:38.747Z,5.77
2022-11-06T20:24:41.405Z,5.90
2022-11-06T20:27:42.930Z,5.87
2022-11-06T20:30:44.341Z,5.90
2022-11-06T20:33:46.642Z,6.00
2022-11-06T20:36:48.161Z,5.40
2022-11-06T20:39:51.965Z,5.50
2022-11-06T20:42:53.351Z,6.50
2022-11-06T20:45:54.795Z,6.30
2022-11-06T20:48:57.769Z,5.50
2022-11-06T20:52:15.416Z,6.33
2022-11-06T20:55:17.202Z,5.10
2022-11-06T20:58:18.587Z,5.77
2022-11-06T21:01:23.099Z,4.37
2022-11-06T21:04:25.006Z,4.13
2022-11-06T21:07:26.446Z,4.30
2022-11-06T21:10:27.924Z,4.00
2022-11-06T21:13:30.155Z,3.13
2022-11-06T21:16:35.141Z,3.73
2022-11-06T21:19:36.875Z,3.40
2022-11-06T21:22:38.322Z,5.70
2022-11-06T21:25:44.096Z,4.93
2022-11-06T21:28:46.741Z,5.53
2022-11-06T21:31:49.412Z,6.30
2022-11-06T21:34:50.844Z,4.70
2022-11-06T21:37:52.264Z,6.10
2022-11-06T21:40:53.652Z,3.43
2022-11-06T21:43:55.847Z,3.17
2022-11-06T21:46:57.268Z,3.40
2022-11-06T21:49:58.753Z,3.03
2022-11-06T21:53:18.504Z,3.37
2022-11-06T21:56:24.947Z,2.80
2022-11-06T21:59:28.786Z,3.17
2022-11-06T22:02:30.309Z,3.03
2022-11-06T22:05:31.983Z,3.70
2022-11-06T22:08:38.311Z,3.73
2022-11-06T22:11:43.987Z,3.20
2022-11-06T22:14:45.462Z,3.63
2022-11-06T22:17:46.856Z,3.07
2022-11-06T22:20:48.269Z,2.93
2022-11-06T22:23:50.018Z,3.10
2022-11-06T22:26:53.255Z,2.90
2022-11-06T22:29:54.635Z,2.90
2022-11-06T22:32:56.234Z,3.20
2022-11-06T22:36:09.856Z,2.70
2022-11-06T22:39:12.235Z,3.00
2022-11-06T22:42:13.635Z,2.80
2022-11-06T22:45:15.389Z,2.93
2022-11-06T22:48:16.828Z,2.80
2022-11-06T22:51:29.605Z,2.97
2022-11-06T22:54:30.996Z,3.03
2022-11-06T22:57:32.449Z,2.93
2022-11-06T23:00:33.895Z,3.10
2022-11-06T23:03:35.659Z,2.90
2022-11-06T23:06:37.062Z,2.90
2022-11-06T23:09:38.511Z,2.70
2022-11-06T23:12:40.135Z,2.33
2022-11-06T23:15:41.515Z,2.63
2022-11-06T23:18:43.264Z,2.60
2022-11-06T23:21:44.696Z,2.20
2022-11-06T23:24:46.285Z,2.30
2022-11-06T23:27:50.014Z,2.10
2022-11-06T23:30:51.590Z,2.50
2022-11-06T23:33:52.988Z,2.33
2022-11-06T23:36:54.374Z,2.23
2022-11-06T23:39:55.862Z,2.10
2022-11-06T23:42:57.557Z,2.37
2022-11-06T23:45:58.948Z,2.00
2022-11-06T23:49:00.373Z,2.00
2022-11-06T23:52:01.853Z,2.20
2022-11-06T23:55:03.834Z,1.97
2022-11-06T23:58:05.232Z,2.00
